Time;durP1;ratioP1;P1;durP2;ratioP2;P2;SDS_P1;SDS_P2;PMS_P1;PMS_P2;Temp;Humidity;BMP_temperature;BMP_pressure;BME280_temperature;BME280_humidity;BME280_pressure;Samples;Min_cycle;Max_cycle;Signal;HPM_P1;HPM_P2
2023/02/20 00:02:42;;;;;;;1999.90;999.90;;;6.80;99.90;;;;;;6703738;88;20208;-75
2023/02/20 00:12:42;;;;;;;1999.90;999.90;;;6.70;99.90;;;;;;6704596;88;20209;-78
2023/02/20 00:22:43;;;;;;;1999.90;999.90;;;6.40;99.90;;;;;;6711006;76;20323;-78
2023/02/20 00:32:46;;;;;;;1999.90;999.90;;;6.10;99.90;;;;;;6752372;88;20234;-78
2023/02/20 00:42:47;;;;;;;1999.90;999.90;;;5.90;99.90;;;;;;6741296;88;20550;-78
2023/02/20 00:52:47;;;;;;;1999.90;999.90;;;5.70;99.90;;;;;;6736566;88;22554;-78
2023/02/20 01:02:48;;;;;;;1999.90;999.90;;;5.60;99.90;;;;;;6745286;88;20198;-78
2023/02/20 01:12:48;;;;;;;1999.90;999.90;;;5.50;99.90;;;;;;6744576;88;20282;-78
2023/02/20 01:22:49;;;;;;;1999.90;999.90;;;5.60;99.90;;;;;;6742989;88;20390;-77
2023/02/20 01:32:49;;;;;;;1999.90;999.90;;;5.70;99.90;;;;;;6752807;88;20316;-78
2023/02/20 01:42:50;;;;;;;1999.90;999.90;;;5.60;99.90;;;;;;6742282;88;20176;-78
2023/02/20 01:52:55;;;;;;;1999.90;999.90;;;5.70;99.90;;;;;;6741304;88;20359;-77
2023/02/20 02:03:09;;;;;;;1999.90;999.90;;;5.80;99.90;;;;;;6738130;88;20316;-78
2023/02/20 02:13:10;;;;;;;1999.90;999.90;;;5.80;99.90;;;;;;6735888;88;20215;-77
2023/02/20 02:23:46;;;;;;;1999.90;999.90;;;5.80;99.90;;;;;;6739216;88;20193;-78
2023/02/20 02:33:46;;;;;;;1999.90;999.90;;;5.90;99.90;;;;;;6739235;88;20220;-78
2023/02/20 02:44:02;;;;;;;1999.90;999.90;;;6.10;99.90;;;;;;6738582;88;20192;-78
2023/02/20 02:54:15;;;;;;;1999.90;999.90;;;6.10;99.90;;;;;;6740453;88;20308;-77
2023/02/20 03:04:22;;;;;;;1999.90;999.90;;;6.00;99.90;;;;;;6739326;88;20301;-78
2023/02/20 03:24:55;;;;;;;1999.90;999.90;;;5.70;99.90;;;;;;6740887;87;20201;-78
2023/02/20 03:45:17;;;;;;;1999.90;999.90;;;5.50;99.90;;;;;;6736550;88;20177;-77
2023/02/20 03:55:17;;;;;;;1999.90;999.90;;;5.30;99.90;;;;;;6736301;88;20180;-78
2023/02/20 04:05:29;;;;;;;1999.90;999.90;;;5.30;99.90;;;;;;6738926;88;20218;-77
2023/02/20 04:15:32;;;;;;;1999.90;999.90;;;5.30;99.90;;;;;;6739975;88;21095;-78
2023/02/20 04:25:45;;;;;;;1999.90;999.90;;;5.10;99.90;;;;;;6737679;88;20271;-78
2023/02/20 04:35:46;;;;;;;1999.90;999.90;;;5.10;99.90;;;;;;6740423;88;20193;-78
2023/02/20 04:45:46;;;;;;;1999.90;999.90;;;4.90;99.90;;;;;;6740627;88;20665;-77
2023/02/20 04:55:47;;;;;;;1999.90;999.90;;;4.50;99.90;;;;;;6751899;88;20549;-77
2023/02/20 05:05:47;;;;;;;1999.90;999.90;;;4.20;99.90;;;;;;6757966;88;20181;-78
2023/02/20 05:15:48;;;;;;;1999.90;999.90;;;4.30;99.90;;;;;;6743742;88;20194;-78
2023/02/20 05:25:48;;;;;;;1999.90;999.90;;;4.50;99.90;;;;;;6739265;88;20688;-78
2023/02/20 05:35:49;;;;;;;1999.90;999.90;;;4.60;99.90;;;;;;6742857;88;20921;-78
2023/02/20 05:45:49;;;;;;;1999.90;999.90;;;4.40;99.90;;;;;;6738447;88;20498;-77
2023/02/20 05:55:50;;;;;;;1999.90;999.90;;;4.10;99.90;;;;;;6741533;88;20209;-77
2023/02/20 06:05:50;;;;;;;1999.90;999.90;;;4.10;99.90;;;;;;6751040;88;20203;-78
2023/02/20 06:15:51;;;;;;;1999.90;999.90;;;4.30;99.90;;;;;;6747215;88;20185;-77
2023/02/20 06:25:51;;;;;;;1999.90;999.90;;;4.40;99.90;;;;;;6741613;88;21901;-75
2023/02/20 06:35:52;;;;;;;1999.90;999.90;;;4.50;99.90;;;;;;6738004;88;20200;-78
2023/02/20 06:45:52;;;;;;;1999.90;999.90;;;4.50;99.90;;;;;;6733438;88;20215;-76
2023/02/20 06:55:53;;;;;;;1999.90;999.90;;;4.30;99.90;;;;;;6737816;88;20680;-76
2023/02/20 07:05:54;;;;;;;1999.90;999.90;;;4.20;99.90;;;;;;6738258;88;20718;-76
2023/02/20 07:15:54;;;;;;;1999.90;999.90;;;4.30;99.90;;;;;;6728848;88;20252;-77
2023/02/20 07:25:55;;;;;;;1999.90;999.90;;;4.40;99.90;;;;;;6737726;88;20282;-76
2023/02/20 07:35:55;;;;;;;1999.90;999.90;;;4.40;99.90;;;;;;6737957;88;20217;-77
2023/02/20 07:45:56;;;;;;;1999.90;999.90;;;4.80;99.90;;;;;;6738078;88;20244;-78
2023/02/20 07:55:56;;;;;;;1999.90;999.90;;;5.10;99.90;;;;;;6738988;88;20700;-77
2023/02/20 08:05:57;;;;;;;1999.90;999.90;;;5.40;99.90;;;;;;6737584;88;20211;-77
2023/02/20 08:15:58;;;;;;;1999.90;999.90;;;6.00;99.90;;;;;;6738880;88;20697;-77
2023/02/20 08:25:59;;;;;;;1999.90;999.90;;;6.50;99.90;;;;;;6738924;88;20234;-79
2023/02/20 08:35:59;;;;;;;1999.90;999.90;;;7.30;99.90;;;;;;6740901;88;20650;-78
2023/02/20 08:46:00;;;;;;;1999.90;999.90;;;8.10;99.90;;;;;;6737882;88;20649;-78
2023/02/20 08:56:01;;;;;;;1999.90;999.90;;;8.20;99.90;;;;;;6723179;88;20203;-78
2023/02/20 09:06:01;;;;;;;1999.90;999.90;;;8.60;99.90;;;;;;6725584;88;20217;-78
2023/02/20 09:16:05;;;;;;;1999.90;999.90;;;8.80;99.90;;;;;;6725450;88;20308;-78
2023/02/20 09:26:06;;;;;;;1999.90;999.90;;;9.20;99.90;;;;;;6733958;88;20165;-80
2023/02/20 09:36:07;;;;;;;1999.90;999.90;;;9.10;99.90;;;;;;6741313;88;20310;-80
2023/02/20 09:46:15;;;;;;;1999.90;999.90;;;9.80;99.90;;;;;;6729429;88;20204;-79
2023/02/20 09:56:19;;;;;;;1999.90;999.90;;;10.60;99.90;;;;;;6723696;88;20189;-81
2023/02/20 10:06:24;;;;;;;1999.90;999.90;;;11.90;99.90;;;;;;6727954;88;20176;-79
2023/02/20 10:16:48;;;;;;;1999.90;999.90;;;12.80;99.90;;;;;;6726867;88;20781;-78
2023/02/20 10:26:56;;;;;;;1999.90;999.90;;;13.80;99.90;;;;;;6729113;88;20210;-78
2023/02/20 10:37:10;;;;;;;1999.90;999.90;;;15.40;99.90;;;;;;6729074;88;20178;-79
2023/02/20 10:47:28;;;;;;;1999.90;999.90;;;16.30;99.90;;;;;;6726310;88;20204;-78
2023/02/20 10:57:37;;;;;;;1999.90;999.90;;;15.90;99.90;;;;;;6729178;88;20194;-79
2023/02/20 11:07:38;;;;;;;1999.90;999.90;;;16.20;99.90;;;;;;6733378;88;20195;-79
2023/02/20 11:17:40;;;;;;;1999.90;999.90;;;16.80;99.90;;;;;;6735350;88;20549;-79
2023/02/20 11:27:41;;;;;;;1999.90;999.90;;;17.10;99.90;;;;;;6728662;88;20268;-80
2023/02/20 11:37:42;;;;;;;1999.90;999.90;;;18.00;99.90;;;;;;6729733;88;20324;-79
2023/02/20 11:47:43;;;;;;;1999.90;999.90;;;18.40;99.80;;;;;;6747048;88;20213;-79
2023/02/20 11:57:44;;;;;;;1999.90;999.90;;;19.00;99.90;;;;;;6747041;88;20226;-80
2023/02/20 12:07:50;;;;;;;1999.90;999.90;;;19.60;98.20;;;;;;6759748;87;20245;-79
2023/02/20 12:18:24;;;;;;;1999.90;999.90;;;20.00;98.20;;;;;;6746326;88;20201;-79
2023/02/20 12:28:49;;;;;;;1999.90;999.90;;;18.70;99.70;;;;;;6744995;88;20636;-80
2023/02/20 12:39:06;;;;;;;1999.90;999.90;;;19.70;98.60;;;;;;6748014;88;20317;-79
2023/02/20 12:49:46;;;;;;;1999.90;999.90;;;20.90;98.20;;;;;;6736741;88;20715;-78
2023/02/20 13:00:00;;;;;;;1999.90;999.90;;;21.60;96.70;;;;;;6740139;88;20335;-81
2023/02/20 13:10:15;;;;;;;1999.90;999.90;;;21.70;97.80;;;;;;6762199;87;20214;-79
2023/02/20 13:20:25;;;;;;;1999.90;999.90;;;24.20;95.50;;;;;;6730196;88;20185;-79
2023/02/20 13:30:27;;;;;;;1999.90;999.90;;;23.90;95.10;;;;;;6730285;88;20204;-79
2023/02/20 13:40:27;;;;;;;1999.90;999.90;;;22.40;95.90;;;;;;6745769;88;20207;-80
2023/02/20 13:50:31;;;;;;;1999.90;999.90;;;22.00;96.40;;;;;;6740288;88;20215;-78
2023/02/20 14:00:50;;;;;;;1999.90;999.90;;;21.10;97.50;;;;;;6757411;88;20185;-80
2023/02/20 14:10:51;;;;;;;1999.90;999.90;;;19.50;99.40;;;;;;6738203;88;20635;-79
2023/02/20 14:21:12;;;;;;;1999.90;999.90;;;18.80;99.90;;;;;;6743404;88;20245;-79
2023/02/20 14:31:32;;;;;;;1999.90;999.90;;;18.80;99.90;;;;;;6726264;88;20213;-82
2023/02/20 14:41:32;;;;;;;1999.90;999.90;;;18.50;99.90;;;;;;6746783;88;20195;-80
2023/02/20 14:51:34;;;;;;;1999.90;999.90;;;18.00;99.90;;;;;;6765428;87;20227;-79
2023/02/20 15:01:40;;;;;;;1999.90;999.90;;;17.30;99.90;;;;;;6763356;88;20629;-80
2023/02/20 15:11:47;;;;;;;1999.90;999.90;;;16.70;99.90;;;;;;6763918;88;20257;-79
2023/02/20 15:21:56;;;;;;;1999.90;999.90;;;16.10;99.90;;;;;;6736346;88;20329;-78
2023/02/20 15:32:04;;;;;;;1999.90;999.90;;;16.00;99.90;;;;;;6742742;88;20593;-78
2023/02/20 15:42:10;;;;;;;1999.90;999.90;;;15.60;99.90;;;;;;6734569;88;20353;-78
2023/02/20 15:52:17;;;;;;;1999.90;999.90;;;15.50;99.90;;;;;;6731414;88;20347;-76
2023/02/20 16:02:20;;;;;;;1999.90;999.90;;;15.10;99.90;;;;;;6730615;88;20206;-78
2023/02/20 16:12:30;;;;;;;1999.90;999.90;;;14.70;99.90;;;;;;6727565;88;20173;-77
2023/02/20 16:22:32;;;;;;;1999.90;999.90;;;14.10;99.90;;;;;;6748135;88;20176;-79
2023/02/20 16:32:32;;;;;;;1999.90;999.90;;;13.40;99.90;;;;;;6744456;88;20652;-78
2023/02/20 16:42:35;;;;;;;1999.90;999.90;;;12.80;99.90;;;;;;6745229;88;20223;-78
2023/02/20 16:52:40;;;;;;;1999.90;999.90;;;12.10;99.90;;;;;;6746828;88;20210;-80
2023/02/20 17:02:41;;;;;;;1999.90;999.90;;;11.50;99.90;;;;;;6744999;88;20227;-79
2023/02/20 17:12:42;;;;;;;1999.90;999.90;;;11.10;99.90;;;;;;6744489;88;20166;-78
2023/02/20 17:22:43;;;;;;;1999.90;999.90;;;10.70;99.90;;;;;;6743742;88;20189;-78
2023/02/20 17:32:43;;;;;;;1999.90;999.90;;;10.40;99.90;;;;;;6745456;88;20220;-79
2023/02/20 17:42:44;;;;;;;1999.90;999.90;;;10.10;99.90;;;;;;6743123;88;20343;-78
2023/02/20 17:52:45;;;;;;;1999.90;999.90;;;10.10;99.90;;;;;;6738144;88;20871;-79
2023/02/20 18:02:45;;;;;;;1999.90;999.90;;;9.90;99.90;;;;;;6741037;88;20203;-79
2023/02/20 18:13:01;;;;;;;1999.90;999.90;;;9.80;99.90;;;;;;6750823;88;20196;-79
2023/02/20 18:23:01;;;;;;;1999.90;999.90;;;9.60;99.90;;;;;;6755271;88;20704;-78
2023/02/20 18:33:43;;;;;;;1999.90;999.90;;;9.60;99.90;;;;;;6767629;76;21869;-81
2023/02/20 18:43:44;;;;;;;1999.90;999.90;;;9.40;99.90;;;;;;6740416;88;20324;-78
2023/02/20 18:53:46;;;;;;;1999.90;999.90;;;9.40;99.90;;;;;;6736932;88;20210;-77
2023/02/20 19:03:49;;;;;;;1999.90;999.90;;;9.30;99.90;;;;;;6724570;88;20679;-77
2023/02/20 19:13:50;;;;;;;1999.90;999.90;;;9.20;99.90;;;;;;6725409;88;20291;-79
2023/02/20 19:23:50;;;;;;;1999.90;999.90;;;9.10;99.90;;;;;;6729827;88;20216;-78
2023/02/20 19:33:51;;;;;;;1999.90;999.90;;;9.20;99.90;;;;;;6740635;88;20270;-80
2023/02/20 19:43:51;;;;;;;1999.90;999.90;;;9.10;99.90;;;;;;6743992;88;20299;-79
2023/02/20 19:53:52;;;;;;;1999.90;999.90;;;8.90;99.90;;;;;;6729413;88;20189;-79
2023/02/20 20:03:53;;;;;;;1999.90;999.90;;;8.70;99.90;;;;;;6724132;88;20215;-79
2023/02/20 20:13:53;;;;;;;1999.90;999.90;;;8.90;99.90;;;;;;6731253;88;20239;-80
2023/02/20 20:23:54;;;;;;;1999.90;999.90;;;8.70;99.90;;;;;;6723152;88;20728;-79
2023/02/20 20:33:54;;;;;;;1999.90;999.90;;;8.80;99.90;;;;;;6719603;88;20722;-78
2023/02/20 20:44:03;;;;;;;1999.90;999.90;;;8.80;99.90;;;;;;6719824;88;21173;-81
2023/02/20 20:54:03;;;;;;;1999.90;999.90;;;8.70;99.90;;;;;;6718959;88;20591;-79
2023/02/20 21:04:04;;;;;;;1999.90;999.90;;;8.60;99.90;;;;;;6717653;88;20331;-77
2023/02/20 21:14:04;;;;;;;1999.90;999.90;;;8.50;99.90;;;;;;6720013;88;20193;-76
2023/02/20 21:24:06;;;;;;;1999.90;999.90;;;8.60;99.90;;;;;;6720292;88;20213;-78
2023/02/20 21:34:07;;;;;;;1999.90;999.90;;;8.60;99.90;;;;;;6720557;88;20178;-77
2023/02/20 21:44:25;;;;;;;1999.90;999.90;;;8.50;99.90;;;;;;6722246;88;20181;-78
2023/02/20 21:54:29;;;;;;;1999.90;999.90;;;8.50;99.90;;;;;;6723034;88;20685;-78
